createdAt,value
2023-01-07T00:01:39.627Z,17.45
2023-01-07T00:04:08.389Z,13.35
2023-01-07T00:07:06.898Z,16.73
2023-01-07T00:09:35.065Z,15.10
2023-01-07T00:12:03.059Z,15.85
2023-01-07T00:14:31.033Z,13.10
2023-01-07T00:16:58.614Z,16.15
2023-01-07T00:19:28.293Z,17.33
2023-01-07T00:21:55.871Z,21.08
2023-01-07T00:24:23.564Z,15.18
2023-01-07T00:26:51.169Z,13.30
2023-01-07T00:29:19.463Z,15.13
2023-01-07T00:31:47.195Z,17.55
2023-01-07T00:34:14.968Z,12.85
2023-01-07T00:36:44.700Z,20.85
2023-01-07T00:39:15.833Z,11.55
2023-01-07T00:44:32.281Z,21.52
2023-01-07T00:47:00.398Z,16.67
2023-01-07T00:49:28.176Z,24.00
2023-01-07T00:51:55.797Z,23.92
2023-01-07T00:54:23.914Z,13.25
2023-01-07T00:56:51.510Z,21.70
2023-01-07T00:59:19.631Z,18.80
2023-01-07T01:01:47.755Z,17.30
2023-01-07T01:04:15.559Z,23.27
2023-01-07T01:07:59.406Z,19.15
2023-01-07T01:10:28.903Z,16.63
2023-01-07T01:13:49.885Z,21.15
2023-01-07T01:16:18.896Z,15.02
2023-01-07T01:18:46.739Z,17.95
2023-01-07T01:21:15.349Z,8.88
2023-01-07T01:23:43.372Z,20.20
2023-01-07T01:26:18.107Z,14.57
2023-01-07T01:28:46.032Z,19.95
2023-01-07T01:31:20.063Z,20.40
2023-01-07T01:33:54.410Z,14.35
2023-01-07T01:36:22.809Z,20.58
2023-01-07T01:53:30.626Z,4.72
2023-01-07T02:01:13.795Z,11.02
2023-01-07T02:04:11.764Z,14.07
2023-01-07T02:07:07.806Z,16.23
2023-01-07T02:09:38.089Z,11.63
2023-01-07T02:18:07.606Z,18.60
2023-01-07T02:35:03.327Z,24.42
2023-01-07T03:11:48.008Z,14.65
2023-01-07T03:14:20.719Z,16.48
2023-01-07T03:18:23.083Z,15.32
2023-01-07T03:26:37.775Z,19.88
2023-01-07T03:48:44.145Z,20.10
2023-01-07T03:51:11.884Z,18.17
2023-01-07T03:53:39.571Z,16.98
2023-01-07T04:21:12.992Z,20.00
2023-01-07T05:08:07.308Z,15.50
2023-01-07T05:10:35.862Z,16.05
2023-01-07T05:19:04.262Z,19.67
2023-01-07T05:21:40.325Z,16.08
2023-01-07T05:24:09.018Z,17.00
2023-01-07T05:26:38.441Z,16.23
2023-01-07T05:30:20.815Z,15.15
2023-01-07T05:33:40.879Z,14.82
2023-01-07T05:40:59.011Z,21.08
2023-01-07T05:43:53.993Z,21.08
2023-01-07T05:50:54.224Z,19.40
2023-01-07T05:53:23.273Z,20.63
2023-01-07T05:55:56.777Z,28.05
2023-01-07T05:58:33.509Z,19.35
2023-01-07T06:15:17.826Z,20.45
2023-01-07T06:17:45.582Z,11.07
2023-01-07T06:36:16.839Z,19.42
2023-01-07T06:48:16.820Z,17.33
2023-01-07T06:50:44.758Z,16.10
2023-01-07T06:53:12.723Z,18.20
2023-01-07T06:55:40.484Z,16.42
2023-01-07T06:58:08.382Z,22.70
2023-01-07T07:00:36.040Z,23.75
2023-01-07T07:07:39.845Z,18.27
2023-01-07T07:10:08.576Z,14.98
2023-01-07T07:12:55.631Z,13.98
2023-01-07T07:15:32.071Z,24.58
2023-01-07T07:18:00.180Z,20.15
2023-01-07T07:20:27.999Z,23.45
2023-01-07T07:22:55.544Z,26.55
2023-01-07T07:25:23.085Z,27.08
2023-01-07T07:27:50.872Z,23.50
2023-01-07T07:30:18.515Z,25.08
2023-01-07T07:32:46.560Z,21.13
2023-01-07T07:35:14.234Z,16.63
2023-01-07T07:37:41.923Z,21.58
2023-01-07T07:40:10.986Z,17.45
2023-01-07T07:43:10.169Z,28.08
2023-01-07T07:45:26.874Z,23.02
2023-01-07T07:47:55.961Z,17.23
2023-01-07T07:50:23.552Z,24.90
2023-01-07T07:52:51.143Z,11.82
2023-01-07T07:55:20.017Z,16.40
2023-01-07T07:57:54.788Z,22.13
2023-01-07T08:00:23.099Z,27.13
2023-01-07T08:02:50.746Z,17.42
2023-01-07T08:05:18.420Z,14.00
2023-01-07T08:07:45.968Z,24.15
2023-01-07T08:10:13.567Z,28.20
2023-01-07T08:12:42.162Z,19.60
2023-01-07T08:15:12.706Z,27.45
2023-01-07T08:17:40.401Z,24.92
2023-01-07T08:20:08.425Z,20.85
2023-01-07T08:22:39.482Z,26.08
2023-01-07T08:25:07.513Z,18.55
2023-01-07T08:27:35.267Z,25.35
2023-01-07T08:30:02.899Z,23.15
2023-01-07T08:32:30.610Z,25.10
2023-01-07T08:34:58.341Z,22.10
2023-01-07T08:37:25.988Z,13.23
2023-01-07T08:39:53.517Z,18.10
2023-01-07T08:42:21.241Z,18.27
2023-01-07T08:44:48.958Z,18.30
2023-01-07T08:47:17.843Z,19.40
2023-01-07T08:49:45.477Z,16.63
2023-01-07T08:52:13.044Z,16.23
2023-01-07T08:54:40.583Z,23.00
2023-01-07T08:57:08.295Z,22.98
2023-01-07T08:59:35.987Z,16.40
2023-01-07T09:02:03.719Z,17.98
2023-01-07T09:04:31.931Z,15.48
2023-01-07T09:06:59.682Z,18.13
2023-01-07T09:09:28.705Z,16.08
2023-01-07T09:11:56.554Z,17.15
2023-01-07T09:14:26.327Z,20.02
2023-01-07T09:16:54.268Z,22.48
2023-01-07T09:19:22.035Z,23.42
2023-01-07T09:21:51.406Z,23.75
2023-01-07T09:24:19.027Z,31.75
2023-01-07T09:26:46.711Z,20.23
2023-01-07T09:29:14.275Z,22.45
2023-01-07T09:31:42.050Z,9.68
2023-01-07T09:34:09.943Z,20.85
2023-01-07T09:36:37.539Z,21.35
2023-01-07T09:39:05.329Z,13.45
2023-01-07T09:41:42.520Z,13.77
2023-01-07T09:44:35.443Z,13.00
2023-01-07T09:47:03.969Z,14.63
2023-01-07T09:49:33.181Z,12.38
2023-01-07T09:52:06.638Z,30.48
2023-01-07T09:54:37.198Z,14.63
2023-01-07T09:57:05.120Z,8.82
2023-01-07T09:59:33.585Z,12.88
2023-01-07T10:02:20.255Z,11.02
2023-01-07T10:05:20.315Z,20.08
2023-01-07T10:08:29.086Z,13.18
2023-01-07T10:11:23.268Z,11.45
2023-01-07T10:14:00.903Z,11.50
2023-01-07T10:16:49.065Z,18.33
2023-01-07T10:19:44.202Z,12.75
2023-01-07T10:22:18.837Z,18.33
2023-01-07T10:24:48.394Z,13.05
2023-01-07T10:27:16.667Z,147.15
2023-01-07T10:29:50.965Z,14.70
2023-01-07T10:32:21.097Z,9.38
2023-01-07T10:34:50.353Z,14.48
2023-01-07T10:37:32.138Z,13.35
2023-01-07T10:40:20.881Z,15.23
2023-01-07T10:43:10.098Z,13.18
2023-01-07T10:46:01.574Z,14.57
2023-01-07T10:48:41.546Z,12.90
2023-01-07T10:51:23.689Z,13.60
2023-01-07T10:54:03.318Z,9.57
2023-01-07T10:56:41.752Z,10.38
2023-01-07T10:59:15.673Z,9.07
2023-01-07T11:01:46.165Z,13.73
2023-01-07T11:04:20.253Z,16.92
2023-01-07T11:06:58.688Z,9.90
2023-01-07T11:09:34.758Z,15.85
2023-01-07T11:12:25.325Z,16.85
2023-01-07T11:14:53.722Z,10.77
2023-01-07T11:17:30.380Z,17.25
2023-01-07T11:19:57.950Z,15.23
2023-01-07T11:22:25.729Z,14.27
2023-01-07T11:24:54.055Z,11.50
2023-01-07T11:27:23.586Z,18.58
2023-01-07T11:29:59.075Z,19.67
2023-01-07T11:32:34.890Z,12.55
2023-01-07T11:35:04.415Z,13.68
2023-01-07T11:37:39.590Z,12.82
2023-01-07T11:40:13.148Z,14.93
2023-01-07T11:42:48.144Z,14.50
2023-01-07T11:45:31.276Z,20.02
2023-01-07T11:48:06.253Z,19.15
2023-01-07T11:50:49.878Z,18.88
2023-01-07T11:53:17.335Z,14.85
2023-01-07T11:56:06.462Z,54.42
2023-01-07T11:58:38.997Z,25.27
2023-01-07T12:01:12.761Z,15.27
2023-01-07T12:03:43.646Z,15.45
2023-01-07T12:06:23.343Z,18.67
2023-01-07T12:08:56.348Z,22.73
2023-01-07T12:11:29.547Z,14.98
2023-01-07T12:14:09.963Z,17.77
2023-01-07T12:16:39.039Z,21.80
2023-01-07T12:19:07.476Z,16.27
2023-01-07T12:21:47.169Z,15.55
2023-01-07T12:24:36.586Z,16.05
2023-01-07T12:27:19.411Z,16.60
2023-01-07T12:30:12.134Z,20.60
2023-01-07T12:33:01.900Z,17.13
2023-01-07T12:35:37.973Z,18.42
2023-01-07T12:38:14.504Z,16.38
2023-01-07T12:40:43.483Z,12.90
2023-01-07T12:43:18.697Z,16.55
2023-01-07T12:46:03.076Z,18.08
2023-01-07T12:48:38.901Z,16.92
2023-01-07T12:55:20.996Z,15.32
2023-01-07T12:58:31.329Z,12.10
2023-01-07T13:01:28.305Z,16.63
2023-01-07T13:04:22.940Z,13.18
2023-01-07T13:07:20.293Z,22.08
2023-01-07T13:09:58.878Z,36.17
2023-01-07T13:12:45.698Z,20.88
2023-01-07T13:15:15.252Z,17.77
2023-01-07T13:17:43.889Z,19.60
2023-01-07T13:20:15.253Z,20.98
2023-01-07T13:22:54.587Z,13.00
2023-01-07T13:25:43.595Z,11.65
2023-01-07T13:28:51.703Z,14.15
2023-01-07T13:31:50.295Z,10.07
2023-01-07T13:34:55.536Z,11.00
2023-01-07T13:37:41.260Z,15.93
2023-01-07T13:40:27.487Z,15.63
2023-01-07T13:42:57.755Z,14.18
2023-01-07T13:45:27.415Z,15.63
2023-01-07T13:47:57.364Z,14.82
2023-01-07T13:50:42.902Z,16.27
2023-01-07T13:53:16.403Z,16.25
2023-01-07T13:55:46.255Z,15.15
2023-01-07T13:58:33.275Z,16.25
2023-01-07T14:01:07.923Z,17.88
2023-01-07T14:03:38.125Z,13.18
2023-01-07T14:06:20.916Z,16.33
2023-01-07T14:08:52.075Z,14.38
2023-01-07T14:11:29.715Z,22.60
2023-01-07T14:14:04.360Z,37.10
2023-01-07T14:16:38.799Z,43.40
2023-01-07T14:19:11.462Z,46.20
2023-01-07T14:22:00.435Z,22.58
2023-01-07T14:25:02.229Z,21.67
2023-01-07T14:27:55.221Z,22.42
2023-01-07T14:30:33.541Z,25.52
2023-01-07T14:33:05.416Z,25.77
2023-01-07T14:35:39.808Z,28.88
2023-01-07T14:38:27.368Z,23.13
2023-01-07T14:41:09.235Z,64.85
2023-01-07T14:43:40.949Z,111.57
2023-01-07T14:46:24.244Z,27.65
2023-01-07T14:49:03.793Z,27.05
2023-01-07T14:52:02.653Z,23.65
2023-01-07T14:54:57.896Z,19.23
2023-01-07T14:58:01.412Z,28.40
2023-01-07T15:00:54.664Z,28.00
2023-01-07T15:04:03.536Z,29.73
2023-01-07T15:06:35.644Z,27.48
2023-01-07T15:09:34.489Z,32.65
2023-01-07T15:12:23.365Z,26.13
2023-01-07T15:15:27.206Z,33.83
2023-01-07T15:17:55.073Z,25.85
2023-01-07T15:20:24.521Z,32.35
2023-01-07T15:23:14.030Z,25.55
2023-01-07T15:26:08.065Z,34.70
2023-01-07T15:28:47.704Z,27.33
2023-01-07T15:31:34.337Z,184.98
2023-01-07T15:34:15.309Z,149.25
2023-01-07T15:36:48.282Z,31.77
2023-01-07T15:39:26.797Z,30.80
2023-01-07T15:41:55.165Z,28.73
2023-01-07T15:44:29.434Z,42.70
2023-01-07T15:46:57.329Z,38.20
2023-01-07T15:49:26.549Z,37.85
2023-01-07T15:51:57.028Z,41.78
2023-01-07T15:54:24.873Z,43.65
2023-01-07T15:56:54.417Z,40.60
2023-01-07T15:59:31.425Z,43.15
2023-01-07T16:02:06.699Z,53.90
2023-01-07T16:04:37.292Z,51.03
2023-01-07T16:09:34.311Z,53.22
2023-01-07T16:12:02.640Z,59.80
2023-01-07T16:14:35.776Z,67.03
2023-01-07T16:17:16.626Z,68.70
2023-01-07T16:19:44.547Z,62.42
2023-01-07T16:22:16.519Z,71.65
2023-01-07T16:24:51.723Z,78.20
2023-01-07T16:27:27.517Z,98.63
2023-01-07T16:29:56.513Z,250.93
2023-01-07T16:32:24.053Z,90.40
2023-01-07T16:34:57.680Z,88.53
2023-01-07T16:37:25.264Z,80.53
2023-01-07T16:39:52.874Z,95.50
2023-01-07T16:42:23.294Z,103.07
2023-01-07T16:44:51.072Z,100.70
2023-01-07T16:47:28.551Z,118.68
2023-01-07T16:50:14.675Z,97.07
2023-01-07T16:52:53.501Z,91.50
2023-01-07T16:56:02.653Z,112.10
2023-01-07T16:58:43.646Z,92.93
2023-01-07T17:01:12.777Z,81.05
2023-01-07T17:03:59.972Z,99.05
2023-01-07T17:06:29.246Z,113.72
2023-01-07T17:08:59.741Z,105.82
2023-01-07T17:11:27.448Z,99.72
2023-01-07T17:13:55.331Z,87.55
2023-01-07T17:16:30.582Z,98.60
2023-01-07T17:19:17.686Z,103.10
2023-01-07T17:21:45.332Z,92.85
2023-01-07T17:24:39.276Z,106.72
2023-01-07T17:27:16.587Z,82.15
2023-01-07T17:29:44.339Z,103.68
2023-01-07T17:32:14.896Z,90.50
2023-01-07T17:35:18.290Z,119.70
2023-01-07T17:37:46.205Z,106.90
2023-01-07T17:40:14.537Z,97.28
2023-01-07T17:43:00.957Z,100.15
2023-01-07T17:45:29.466Z,97.32
2023-01-07T17:47:58.914Z,102.30
2023-01-07T17:50:30.585Z,106.72
2023-01-07T17:52:58.441Z,93.55
2023-01-07T17:55:28.271Z,108.03
2023-01-07T17:57:55.936Z,90.60
2023-01-07T18:00:26.906Z,86.85
2023-01-07T18:02:54.710Z,83.65
2023-01-07T18:05:23.831Z,82.50
2023-01-07T18:07:52.628Z,79.97
2023-01-07T18:10:26.743Z,60.92
2023-01-07T18:12:55.176Z,74.57
2023-01-07T18:15:25.279Z,79.82
2023-01-07T18:17:53.198Z,83.53
2023-01-07T18:20:21.636Z,64.82
2023-01-07T18:22:50.624Z,72.18
2023-01-07T18:25:20.930Z,65.32
2023-01-07T18:27:49.565Z,66.75
2023-01-07T18:30:18.623Z,67.95
2023-01-07T18:32:46.570Z,66.53
2023-01-07T18:35:14.790Z,54.25
2023-01-07T18:37:42.815Z,56.97
2023-01-07T18:40:10.931Z,38.50
2023-01-07T18:42:39.742Z,37.63
2023-01-07T18:45:07.855Z,37.58
2023-01-07T18:47:38.227Z,31.83
2023-01-07T18:50:34.880Z,48.40
2023-01-07T18:53:03.040Z,34.45
2023-01-07T18:55:31.529Z,44.53
2023-01-07T18:57:59.213Z,32.33
2023-01-07T19:00:26.901Z,44.13
2023-01-07T19:02:54.597Z,33.47
2023-01-07T19:05:22.605Z,43.25
2023-01-07T19:07:50.612Z,41.85
2023-01-07T19:10:18.732Z,35.80
2023-01-07T19:12:46.486Z,33.40
2023-01-07T19:15:14.162Z,36.25
2023-01-07T19:17:42.075Z,30.95
2023-01-07T19:20:10.465Z,33.65
2023-01-07T19:22:39.267Z,32.72
2023-01-07T19:25:07.326Z,37.85
2023-01-07T19:27:35.122Z,37.97
2023-01-07T19:30:02.950Z,39.72
2023-01-07T19:32:31.028Z,47.50
2023-01-07T19:39:35.441Z,41.42
2023-01-07T19:42:03.853Z,38.72
2023-01-07T19:44:31.574Z,30.58
2023-01-07T19:46:59.579Z,31.73
2023-01-07T19:49:29.986Z,40.50
2023-01-07T19:51:57.920Z,38.35
2023-01-07T19:54:26.020Z,38.28
2023-01-07T19:56:59.111Z,30.80
2023-01-07T19:59:26.829Z,34.40
2023-01-07T20:01:56.271Z,33.05
2023-01-07T20:04:24.397Z,44.45
2023-01-07T20:06:52.069Z,38.70
2023-01-07T20:09:21.117Z,41.33
2023-01-07T20:11:48.881Z,41.90
2023-01-07T20:14:17.071Z,29.70
2023-01-07T20:16:45.100Z,31.25
2023-01-07T20:19:12.917Z,32.30
2023-01-07T20:21:41.239Z,30.75
2023-01-07T20:24:09.237Z,30.92
2023-01-07T20:26:38.440Z,49.15
2023-01-07T20:29:06.299Z,38.22
2023-01-07T20:31:34.028Z,36.17
2023-01-07T20:34:02.640Z,40.83
2023-01-07T20:36:32.719Z,32.17
2023-01-07T20:39:06.168Z,42.05
2023-01-07T20:41:34.565Z,54.65
2023-01-07T20:44:03.833Z,46.67
2023-01-07T20:46:34.827Z,46.65
2023-01-07T20:49:02.788Z,40.10
2023-01-07T20:51:30.745Z,56.20
2023-01-07T20:53:58.532Z,56.15
2023-01-07T20:56:32.528Z,61.15
2023-01-07T20:59:01.171Z,61.35
2023-01-07T21:01:29.865Z,55.50
2023-01-07T21:03:57.743Z,64.85
2023-01-07T21:06:25.341Z,73.93
2023-01-07T21:08:53.153Z,193.73
2023-01-07T21:11:22.077Z,169.02
2023-01-07T21:13:50.227Z,362.02
2023-01-07T21:16:18.010Z,63.17
2023-01-07T21:18:45.747Z,50.47
2023-01-07T21:21:19.125Z,58.60
2023-01-07T21:23:47.951Z,51.17
2023-01-07T21:26:15.837Z,47.50
2023-01-07T21:28:44.485Z,47.38
2023-01-07T21:31:15.742Z,38.00
2023-01-07T21:33:43.596Z,47.80
2023-01-07T21:36:15.918Z,45.83
2023-01-07T21:38:43.762Z,40.08
2023-01-07T21:41:16.054Z,47.80
2023-01-07T21:43:46.524Z,43.83
2023-01-07T21:46:14.781Z,59.38
2023-01-07T21:48:46.685Z,63.88
2023-01-07T21:51:19.705Z,43.67
2023-01-07T21:53:47.575Z,41.40
2023-01-07T21:56:16.497Z,32.53
2023-01-07T21:58:47.549Z,33.72
2023-01-07T22:01:16.313Z,39.58
2023-01-07T22:03:48.720Z,36.08
2023-01-07T22:06:33.648Z,40.40
2023-01-07T22:09:08.908Z,39.60
2023-01-07T22:11:38.761Z,42.83
2023-01-07T22:14:06.570Z,42.27
2023-01-07T22:16:34.428Z,37.60
2023-01-07T22:19:02.215Z,35.10
2023-01-07T22:21:30.218Z,38.22
2023-01-07T22:23:57.928Z,40.00
2023-01-07T22:26:25.759Z,45.47
2023-01-07T22:28:54.737Z,40.80
2023-01-07T22:31:41.640Z,30.50
2023-01-07T22:34:10.513Z,37.00
2023-01-07T22:37:01.907Z,43.38
2023-01-07T22:39:55.845Z,48.55
2023-01-07T22:42:30.506Z,48.90
2023-01-07T22:45:01.104Z,66.80
2023-01-07T22:47:36.023Z,66.80
2023-01-07T22:50:04.291Z,41.63
2023-01-07T22:52:32.631Z,39.08
2023-01-07T22:55:00.655Z,44.10
2023-01-07T22:57:28.638Z,57.97
2023-01-07T22:59:58.312Z,38.83
2023-01-07T23:02:26.907Z,29.20
2023-01-07T23:04:54.680Z,38.67
2023-01-07T23:07:22.379Z,32.92
2023-01-07T23:09:52.377Z,29.25
2023-01-07T23:12:20.165Z,39.03
2023-01-07T23:14:47.935Z,53.40
2023-01-07T23:17:15.646Z,51.33
2023-01-07T23:19:43.315Z,52.72
2023-01-07T23:22:11.012Z,37.03
2023-01-07T23:24:39.380Z,39.83
2023-01-07T23:27:07.700Z,36.70
2023-01-07T23:29:36.027Z,39.50
2023-01-07T23:32:03.852Z,34.15
2023-01-07T23:34:32.384Z,39.35
2023-01-07T23:37:00.167Z,30.80
2023-01-07T23:39:28.397Z,31.60
2023-01-07T23:41:56.188Z,35.67
2023-01-07T23:44:23.910Z,36.33
2023-01-07T23:46:51.785Z,42.58
2023-01-07T23:49:19.569Z,29.92
2023-01-07T23:51:47.318Z,45.17
2023-01-07T23:54:15.034Z,38.83
2023-01-07T23:56:42.912Z,38.15
2023-01-07T23:59:10.632Z,38.00
